Atqasuk, Alaska
Current Conditions -  °F | °C
As of 5:56 AM on Saturday 22 Nov 2014 (Local Time) from PATQ Reporting Station
Clear Clear  
Wind Chill: -27°   Ceiling: Unl
Heat Index: -14°   Visibility: 10mi
Dew Point: -16°   Wind: 31mph
Humidity: 87%   Direction: 100°E
Pressure: 29.59"   Gusts: 38mph
Location:  70.47°N, 157.4°W
Report Text: PATQ 221456Z AUTO 10027G33KT 10SM CLR M14/M16 A2959 RMK AO2 TSNO 55003 60000 T11381155 PK WND 10033/1448 SLP025 $
Loading
Personal Weather Stations






























Interactive Weather Map New forecast layout! Learn more

10-Day Weather Forecast

Advertisements
Track Severe Weather on mobile